createdAt,value
2018-12-12T00:02:18.358Z,2.47
2018-12-12T00:07:23.540Z,4.20
2018-12-12T00:12:26.473Z,3.27
2018-12-12T00:17:29.415Z,4.60
2018-12-12T00:22:34.176Z,4.60
2018-12-12T00:27:36.932Z,3.10
2018-12-12T00:32:39.823Z,3.00
2018-12-12T00:37:42.561Z,3.23
2018-12-12T00:42:45.297Z,2.87
2018-12-12T00:47:48.064Z,2.93
2018-12-12T00:52:50.990Z,3.53
2018-12-12T00:57:53.935Z,2.83
2018-12-12T01:02:56.841Z,2.97
2018-12-12T01:07:59.730Z,3.10
2018-12-12T01:13:02.404Z,4.40
2018-12-12T01:18:05.423Z,3.87
2018-12-12T01:23:08.276Z,5.83
2018-12-12T01:28:10.917Z,5.10
2018-12-12T01:33:13.739Z,4.70
2018-12-12T01:38:16.383Z,3.27
2018-12-12T01:43:19.163Z,3.37
2018-12-12T01:48:22.159Z,4.07
2018-12-12T01:53:25.048Z,5.13
2018-12-12T01:58:27.579Z,4.00
2018-12-12T02:03:30.436Z,5.17
2018-12-12T02:08:33.305Z,4.20
2018-12-12T02:13:36.734Z,4.83
2018-12-12T02:18:42.328Z,4.83
2018-12-12T02:23:45.101Z,4.57
2018-12-12T02:28:47.988Z,4.60
2018-12-12T02:33:51.090Z,3.93
2018-12-12T02:38:53.944Z,5.03
2018-12-12T02:43:56.973Z,6.43
2018-12-12T02:49:00.003Z,7.83
2018-12-12T02:54:02.870Z,6.07
2018-12-12T02:59:05.772Z,5.60
2018-12-12T03:04:08.604Z,5.30
2018-12-12T03:09:11.578Z,5.57
2018-12-12T03:14:14.457Z,6.30
2018-12-12T03:19:18.306Z,5.27
2018-12-12T03:24:20.977Z,6.47
2018-12-12T03:29:23.737Z,5.60
2018-12-12T03:34:26.813Z,5.70
2018-12-12T03:39:30.030Z,6.37
2018-12-12T03:44:32.801Z,6.10
2018-12-12T03:49:35.542Z,7.70
2018-12-12T03:54:38.264Z,8.17
2018-12-12T03:59:40.995Z,9.57
2018-12-12T04:04:43.867Z,8.73
2018-12-12T04:09:46.597Z,8.80
2018-12-12T04:14:49.188Z,6.50
2018-12-12T04:19:51.883Z,8.63
2018-12-12T04:24:55.117Z,7.67
2018-12-12T04:29:57.732Z,8.37
2018-12-12T04:35:00.892Z,10.77
2018-12-12T04:40:05.395Z,9.93
2018-12-12T04:45:08.392Z,8.83
2018-12-12T04:50:11.256Z,9.60
2018-12-12T04:55:14.106Z,8.90
2018-12-12T05:00:16.943Z,9.77
2018-12-12T05:05:19.814Z,11.03
2018-12-12T05:10:22.786Z,8.93
2018-12-12T05:15:25.710Z,10.23
2018-12-12T05:20:28.495Z,12.50
2018-12-12T05:25:31.408Z,11.53
2018-12-12T05:30:34.783Z,13.47
2018-12-12T05:35:37.904Z,16.10
2018-12-12T05:40:41.140Z,18.07
2018-12-12T05:45:44.083Z,15.83
2018-12-12T05:50:46.865Z,16.10
2018-12-12T05:55:49.536Z,16.23
2018-12-12T06:00:52.301Z,18.00
2018-12-12T06:05:55.040Z,15.63
2018-12-12T06:10:57.728Z,16.47
2018-12-12T06:16:00.353Z,12.53
2018-12-12T06:21:03.183Z,12.17
2018-12-12T06:26:06.159Z,12.50
2018-12-12T06:31:09.271Z,12.53
2018-12-12T06:36:12.133Z,10.53
2018-12-12T06:41:15.193Z,11.33
2018-12-12T06:46:19.287Z,11.07
2018-12-12T06:51:22.204Z,11.40
2018-12-12T06:56:25.175Z,10.03
2018-12-12T07:01:28.203Z,12.77
2018-12-12T07:06:31.054Z,9.73
2018-12-12T07:11:33.916Z,12.50
2018-12-12T07:16:36.804Z,11.77
2018-12-12T07:21:39.888Z,14.97
2018-12-12T07:26:43.536Z,14.67
2018-12-12T07:31:46.528Z,13.50
2018-12-12T07:36:49.463Z,14.30
2018-12-12T07:41:52.285Z,12.03
2018-12-12T07:46:57.616Z,11.77
2018-12-12T07:52:02.460Z,15.47
2018-12-12T07:57:05.441Z,13.50
2018-12-12T08:02:08.497Z,15.80
2018-12-12T08:07:11.506Z,21.13
2018-12-12T08:12:14.421Z,15.23
2018-12-12T08:17:17.240Z,19.70
2018-12-12T08:22:20.185Z,25.13
2018-12-12T08:27:23.325Z,17.10
2018-12-12T08:32:26.279Z,16.40
2018-12-12T08:37:29.254Z,13.40
2018-12-12T08:42:32.061Z,14.17
2018-12-12T08:47:34.749Z,17.57
2018-12-12T08:52:38.753Z,11.27
2018-12-12T08:57:41.524Z,12.23
2018-12-12T09:02:44.504Z,11.93
2018-12-12T09:07:47.456Z,12.90
2018-12-12T09:12:50.209Z,13.67
2018-12-12T09:17:52.924Z,13.70
2018-12-12T09:22:55.660Z,10.00
2018-12-12T09:27:58.564Z,9.10
2018-12-12T09:33:03.504Z,8.73
2018-12-12T09:38:12.346Z,12.37
2018-12-12T09:43:15.097Z,8.93
2018-12-12T09:48:19.714Z,12.50
2018-12-12T09:53:22.992Z,9.97
2018-12-12T09:58:25.842Z,7.87
2018-12-12T10:03:31.270Z,9.17
2018-12-12T10:08:33.666Z,8.87
2018-12-12T10:13:36.545Z,9.60
2018-12-12T10:18:39.748Z,8.03
2018-12-12T10:23:42.608Z,8.87
2018-12-12T10:28:45.374Z,7.83
2018-12-12T10:33:48.525Z,8.20
2018-12-12T10:38:51.393Z,7.13
2018-12-12T10:43:54.312Z,6.40
2018-12-12T10:48:57.964Z,9.80
2018-12-12T10:54:00.949Z,10.23
2018-12-12T10:59:03.763Z,5.90
2018-12-12T11:04:08.019Z,9.20
2018-12-12T11:09:11.100Z,8.67
2018-12-12T11:14:13.827Z,4.00
2018-12-12T11:19:16.412Z,4.73
2018-12-12T11:24:19.061Z,8.70
2018-12-12T11:29:21.928Z,5.73
2018-12-12T11:34:24.696Z,6.97
2018-12-12T11:39:27.507Z,8.37
2018-12-12T11:44:30.352Z,8.70
2018-12-12T11:49:32.977Z,10.73
2018-12-12T11:54:35.966Z,8.53
2018-12-12T11:59:38.609Z,15.40
2018-12-12T12:04:41.512Z,17.27
2018-12-12T12:09:44.297Z,8.37
2018-12-12T12:14:47.253Z,8.47
2018-12-12T12:19:50.229Z,8.13
2018-12-12T12:24:53.107Z,11.93
2018-12-12T12:29:56.042Z,10.33
2018-12-12T12:35:00.143Z,8.53
2018-12-12T12:40:05.810Z,13.73
2018-12-12T12:45:08.792Z,9.03
2018-12-12T12:50:11.656Z,12.67
2018-12-12T12:55:15.611Z,11.50
2018-12-12T13:00:18.300Z,11.33
2018-12-12T13:05:21.253Z,13.60
2018-12-12T13:10:24.241Z,16.77
2018-12-12T13:15:27.350Z,11.90
2018-12-12T13:20:30.214Z,13.17
2018-12-12T13:25:33.238Z,10.60
2018-12-12T13:30:36.263Z,10.30
2018-12-12T13:35:39.043Z,8.63
2018-12-12T13:40:41.864Z,11.07
2018-12-12T13:45:44.950Z,9.57
2018-12-12T13:50:47.857Z,11.73
2018-12-12T13:55:50.794Z,13.50
2018-12-12T14:00:55.478Z,13.40
2018-12-12T14:05:58.472Z,13.13
2018-12-12T14:11:01.697Z,19.00
2018-12-12T14:16:05.006Z,12.97
2018-12-12T14:21:07.957Z,18.30
2018-12-12T14:26:10.987Z,13.60
2018-12-12T14:31:13.943Z,12.00
2018-12-12T14:36:16.780Z,14.33
2018-12-12T14:41:19.547Z,14.37
2018-12-12T14:46:22.381Z,18.27
2018-12-12T14:51:25.141Z,17.27
2018-12-12T14:56:28.225Z,18.13
2018-12-12T15:01:32.095Z,16.73
2018-12-12T15:06:35.011Z,19.80
2018-12-12T15:11:37.972Z,17.87
2018-12-12T15:16:40.861Z,20.20
2018-12-12T15:21:43.728Z,17.80
2018-12-12T15:26:46.516Z,15.57
2018-12-12T15:31:49.427Z,15.50
2018-12-12T15:36:52.317Z,18.80
2018-12-12T15:41:55.762Z,20.97
2018-12-12T15:46:58.597Z,16.33
2018-12-12T15:52:01.405Z,15.90
2018-12-12T15:57:04.299Z,27.90
2018-12-12T16:02:07.266Z,19.33
2018-12-12T16:07:10.363Z,17.57
2018-12-12T16:12:13.525Z,19.23
2018-12-12T16:17:16.558Z,16.77
2018-12-12T16:22:19.373Z,17.80
2018-12-12T16:27:22.376Z,20.53
2018-12-12T16:32:25.328Z,19.43
2018-12-12T16:37:28.148Z,21.67
2018-12-12T16:42:31.104Z,24.33
2018-12-12T16:47:35.921Z,20.00
2018-12-12T16:52:38.698Z,21.53
2018-12-12T16:57:41.381Z,23.20
2018-12-12T17:02:44.289Z,19.87
2018-12-12T17:07:47.231Z,21.03
2018-12-12T17:12:50.257Z,28.00
2018-12-12T17:17:53.288Z,23.30
2018-12-12T17:22:56.040Z,21.60
2018-12-12T17:27:58.762Z,21.93
2018-12-12T17:33:01.751Z,22.90
2018-12-12T17:38:04.894Z,20.77
2018-12-12T17:43:07.823Z,23.10
2018-12-12T17:48:10.706Z,22.70
2018-12-12T17:53:14.021Z,21.60
2018-12-12T17:58:16.916Z,22.20
2018-12-12T18:03:21.258Z,23.20
2018-12-12T18:08:43.850Z,19.13
2018-12-12T18:13:46.912Z,24.90
2018-12-12T18:18:51.875Z,22.30
2018-12-12T18:23:54.847Z,22.57
2018-12-12T18:28:57.651Z,20.53
2018-12-12T18:34:00.620Z,23.80
2018-12-12T18:39:07.059Z,23.90
2018-12-12T18:44:11.754Z,20.77
2018-12-12T18:49:14.597Z,22.97
2018-12-12T18:54:19.587Z,21.43
2018-12-12T18:59:24.486Z,22.50
2018-12-12T19:04:27.449Z,25.20
2018-12-12T19:14:48.526Z,20.70
2018-12-12T19:19:52.303Z,24.53
2018-12-12T19:24:55.203Z,24.80
2018-12-12T19:29:58.044Z,22.10
2018-12-12T19:35:00.961Z,21.90
2018-12-12T19:40:04.910Z,43.87
2018-12-12T19:45:08.225Z,25.47
2018-12-12T19:50:11.308Z,26.13
2018-12-12T19:55:14.341Z,23.97
2018-12-12T20:00:17.121Z,24.77
2018-12-12T20:05:19.929Z,23.50
2018-12-12T20:10:22.882Z,24.57
2018-12-12T20:15:31.902Z,22.63
2018-12-12T20:20:34.683Z,26.67
2018-12-12T20:25:37.447Z,25.93
2018-12-12T20:30:40.743Z,28.57
2018-12-12T20:35:47.926Z,23.47
2018-12-12T20:40:48.516Z,26.63
2018-12-12T20:45:51.562Z,27.07
2018-12-12T20:50:54.444Z,23.20
2018-12-12T20:55:57.384Z,29.77
2018-12-12T21:01:01.475Z,24.27
2018-12-12T21:06:05.854Z,25.60
2018-12-12T21:11:09.048Z,30.63
2018-12-12T21:16:12.823Z,23.90
2018-12-12T21:21:15.810Z,29.00
2018-12-12T21:26:19.499Z,28.13
2018-12-12T21:31:22.346Z,26.60
2018-12-12T21:41:38.291Z,29.83
2018-12-12T21:46:42.721Z,29.13
2018-12-12T21:51:45.873Z,31.23
2018-12-12T21:56:48.493Z,28.47
2018-12-12T22:07:04.291Z,32.63
2018-12-12T22:12:07.212Z,30.00
2018-12-12T22:17:10.405Z,28.77
2018-12-12T22:22:14.251Z,22.40
2018-12-12T22:27:17.043Z,25.07
2018-12-12T22:32:19.852Z,19.23
2018-12-12T22:37:22.766Z,18.43
2018-12-12T22:42:25.516Z,21.77
2018-12-12T22:47:28.255Z,23.07
2018-12-12T22:52:31.047Z,19.60
2018-12-12T22:57:33.998Z,15.73
2018-12-12T23:02:36.948Z,19.10
2018-12-12T23:07:39.869Z,15.17
2018-12-12T23:12:42.889Z,18.20
2018-12-12T23:17:45.666Z,16.90
2018-12-12T23:22:49.609Z,19.53
2018-12-12T23:27:53.309Z,21.37
2018-12-12T23:32:56.236Z,22.07
2018-12-12T23:37:58.888Z,25.00
2018-12-12T23:43:01.706Z,24.30
2018-12-12T23:48:04.885Z,23.23
2018-12-12T23:53:07.681Z,28.57
2018-12-12T23:58:10.283Z,34.00
